Orleans, Canada
Current Conditions -  °F | °C
As of 9:00 PM on Wednesday 26 Nov 2014 (Local Time) from CYND Reporting Station
Broken Clouds Broken Clouds  
Wind Chill: 21°   Ceiling: 10000
Heat Index: 28°   Visibility: 15mi
Dew Point: 19°   Wind: 7mph
Humidity: 69%   Direction: 10°N
Pressure: 30.1"   Gusts: NA
Location:  45.47°N, 75.52°W
Report Text: CYND 270200Z 01006KT 15SM BKN100 M02/M07 A3010 RMK AC7 LAST OBS/NEXT 271200 UTC SLP197
Loading
Personal Weather Stations






























Interactive Weather Map New forecast layout! Learn more

10-Day Weather Forecast

Advertisements
Track Severe Weather on mobile